createdAt,value
2022-09-03T10:02:13.756Z,0.80
2022-09-03T10:04:48.749Z,0.80
2022-09-03T10:07:32.036Z,0.98
2022-09-03T10:10:19.610Z,1.00
2022-09-03T10:13:10.019Z,1.00
2022-09-03T10:15:51.931Z,1.00
2022-09-03T10:18:28.731Z,1.00
2022-09-03T10:21:05.005Z,0.90
2022-09-03T10:23:41.874Z,0.82
2022-09-03T10:26:16.723Z,1.02
2022-09-03T10:28:46.202Z,0.68
2022-09-03T10:31:31.821Z,0.75
2022-09-03T10:34:24.576Z,0.70
2022-09-03T10:37:10.683Z,0.93
2022-09-03T10:39:55.952Z,0.85
2022-09-03T10:42:37.502Z,0.80
2022-09-03T10:45:09.839Z,0.80
2022-09-03T10:48:19.218Z,0.85
2022-09-03T10:51:16.703Z,0.80
2022-09-03T10:53:53.504Z,1.00
2022-09-03T10:56:39.784Z,1.00
2022-09-03T10:59:28.601Z,1.45
2022-09-03T11:02:21.278Z,0.80
2022-09-03T11:05:00.566Z,0.90
2022-09-03T11:07:35.657Z,0.90
2022-09-03T11:10:15.562Z,1.00
2022-09-03T11:13:10.039Z,0.80
2022-09-03T11:15:43.373Z,0.90
2022-09-03T11:18:18.740Z,0.70
2022-09-03T11:20:49.350Z,0.88
2022-09-03T11:23:17.284Z,0.98
2022-09-03T11:25:51.650Z,0.90
2022-09-03T11:28:36.977Z,1.02
2022-09-03T11:31:13.920Z,1.05
2022-09-03T11:33:46.156Z,0.90
2022-09-03T11:36:13.641Z,1.20
2022-09-03T11:38:40.554Z,1.00
2022-09-03T11:41:36.381Z,0.73
2022-09-03T11:44:19.786Z,0.90
2022-09-03T11:47:25.137Z,0.90
2022-09-03T11:50:08.847Z,0.93
2022-09-03T11:52:40.574Z,0.90
2022-09-03T11:55:08.607Z,0.95
2022-09-03T11:57:43.474Z,0.82
2022-09-03T12:00:13.237Z,0.90
2022-09-03T12:02:52.485Z,0.98
2022-09-03T12:05:48.304Z,0.80
2022-09-03T12:08:50.787Z,0.90
2022-09-03T12:11:32.584Z,0.88
2022-09-03T12:14:23.699Z,0.82
2022-09-03T12:17:20.046Z,0.70
2022-09-03T12:19:56.712Z,0.93
2022-09-03T12:22:27.543Z,0.85
2022-09-03T12:24:54.727Z,0.95
2022-09-03T12:27:24.784Z,0.80
2022-09-03T12:30:00.288Z,0.90
2022-09-03T12:32:36.963Z,0.70
2022-09-03T12:35:13.679Z,0.80
2022-09-03T12:40:30.652Z,0.90
2022-09-03T12:46:16.045Z,0.88
2022-09-03T12:51:52.571Z,1.00
2022-09-03T12:54:22.302Z,0.80
2022-09-03T12:56:56.309Z,1.00
2022-09-03T12:59:24.975Z,0.80
2022-09-03T13:01:54.923Z,0.85
2022-09-03T13:04:29.450Z,0.75
2022-09-03T13:07:21.421Z,0.82
2022-09-03T13:09:48.621Z,0.70
2022-09-03T13:12:40.867Z,1.00
2022-09-03T13:15:10.970Z,1.15
2022-09-03T13:17:37.572Z,0.90
2022-09-03T13:20:29.381Z,0.77
2022-09-03T13:23:20.537Z,0.90
2022-09-03T13:26:31.730Z,0.95
2022-09-03T13:29:22.520Z,0.98
2022-09-03T13:32:25.931Z,0.75
2022-09-03T13:35:32.506Z,0.82
2022-09-03T13:38:14.795Z,0.80
2022-09-03T13:41:19.697Z,0.80
2022-09-03T13:44:07.871Z,0.90
2022-09-03T13:46:57.465Z,1.05
2022-09-03T13:49:52.055Z,0.70
2022-09-03T13:52:28.527Z,1.00
2022-09-03T13:55:03.034Z,0.90
2022-09-03T13:57:48.106Z,0.90
2022-09-03T14:00:25.190Z,0.88
2022-09-03T14:03:33.316Z,0.77
2022-09-03T14:06:14.377Z,0.80
2022-09-03T14:09:04.740Z,1.10
2022-09-03T14:11:47.112Z,1.08
2022-09-03T14:14:53.087Z,1.00
2022-09-03T14:17:41.618Z,0.80
2022-09-03T14:20:19.394Z,0.80
2022-09-03T14:22:55.811Z,0.90
2022-09-03T14:25:25.158Z,1.00
2022-09-03T14:27:52.174Z,1.08
2022-09-03T14:30:27.785Z,0.80
2022-09-03T14:32:57.186Z,0.80
2022-09-03T14:35:51.881Z,0.95
2022-09-03T14:38:36.950Z,0.70
2022-09-03T14:41:22.662Z,0.90
2022-09-03T14:43:55.015Z,0.80
2022-09-03T14:46:45.946Z,0.80
2022-09-03T14:49:30.947Z,0.90
2022-09-03T14:52:22.110Z,0.80
2022-09-03T14:55:27.333Z,0.95
2022-09-03T14:58:21.881Z,0.93
2022-09-03T15:00:52.611Z,0.90
2022-09-03T15:03:39.598Z,0.75
2022-09-03T15:06:30.678Z,0.85
2022-09-03T15:09:16.791Z,0.98
2022-09-03T15:11:55.550Z,1.25
2022-09-03T15:14:29.784Z,0.90
2022-09-03T15:17:19.367Z,0.85
2022-09-03T15:19:55.761Z,0.93
2022-09-03T15:22:37.846Z,0.80
2022-09-03T15:25:07.294Z,1.00
2022-09-03T15:27:37.008Z,0.80
2022-09-03T15:30:09.903Z,0.90
2022-09-03T15:32:42.299Z,1.52
2022-09-03T15:35:13.943Z,1.00
2022-09-03T15:37:48.938Z,1.00
2022-09-03T15:40:27.478Z,0.90
2022-09-03T15:43:05.032Z,0.82
2022-09-03T15:45:38.477Z,0.85
2022-09-03T15:48:29.253Z,1.10
2022-09-03T15:51:10.550Z,1.00
2022-09-03T15:53:45.994Z,0.80
2022-09-03T15:56:38.862Z,0.95
2022-09-03T15:59:14.604Z,1.10
2022-09-03T16:04:22.835Z,1.10
2022-09-03T16:07:27.857Z,0.80
2022-09-03T16:10:23.754Z,0.95
2022-09-03T16:13:22.795Z,1.13
2022-09-03T16:16:05.221Z,0.82
2022-09-03T16:18:49.687Z,0.80
2022-09-03T16:21:37.463Z,1.00
2022-09-03T16:24:16.076Z,0.80
2022-09-03T16:26:48.800Z,1.00
2022-09-03T16:29:26.075Z,0.90
2022-09-03T16:32:27.559Z,0.70
2022-09-03T16:35:11.597Z,1.10
2022-09-03T16:38:01.810Z,0.85
2022-09-03T16:40:40.377Z,0.88
2022-09-03T16:43:40.731Z,0.80
2022-09-03T16:46:53.538Z,0.90
2022-09-03T16:49:38.340Z,0.90
2022-09-03T16:52:38.665Z,1.10
2022-09-03T16:55:22.072Z,1.08
2022-09-03T16:58:10.788Z,1.05
2022-09-03T17:01:15.515Z,1.02
2022-09-03T17:03:44.992Z,0.77
2022-09-03T17:06:30.779Z,0.70
2022-09-03T17:09:07.037Z,1.00
2022-09-03T17:11:40.661Z,0.75
2022-09-03T17:14:27.312Z,0.95
2022-09-03T17:17:10.712Z,0.90
2022-09-03T17:19:54.618Z,0.90
2022-09-03T17:22:39.820Z,0.93
2022-09-03T17:25:35.723Z,0.90
2022-09-03T17:28:11.178Z,1.00
2022-09-03T17:30:49.294Z,1.10
2022-09-03T17:33:54.673Z,0.90
2022-09-03T17:36:27.156Z,1.27
2022-09-03T17:39:17.939Z,1.20
2022-09-03T17:41:55.158Z,1.42
2022-09-03T17:44:37.088Z,0.88
2022-09-03T17:47:41.609Z,1.00
2022-09-03T17:50:24.873Z,1.10
2022-09-03T17:52:59.834Z,1.40
2022-09-03T17:55:39.434Z,1.30
2022-09-03T17:58:19.613Z,0.90
2022-09-03T18:00:53.986Z,1.30
2022-09-03T18:03:39.570Z,1.00
2022-09-03T18:06:20.721Z,1.30
2022-09-03T18:09:10.542Z,1.20
2022-09-03T18:11:40.870Z,1.40
2022-09-03T18:14:11.691Z,1.20
2022-09-03T18:16:45.849Z,1.25
2022-09-03T18:19:52.701Z,1.10
2022-09-03T18:22:41.125Z,1.42
2022-09-03T18:25:30.450Z,1.70
2022-09-03T18:28:19.699Z,1.60
2022-09-03T18:31:06.556Z,1.50
2022-09-03T18:33:51.457Z,1.50
2022-09-03T18:36:36.467Z,1.70
2022-09-03T18:39:30.052Z,1.52
2022-09-03T18:42:47.165Z,1.60
2022-09-03T18:49:07.979Z,1.63
2022-09-03T18:52:21.773Z,1.60
2022-09-03T18:55:26.494Z,1.23
2022-09-03T18:58:34.097Z,1.50
2022-09-03T19:01:51.527Z,1.48
2022-09-03T19:04:44.414Z,1.35
2022-09-03T19:07:42.167Z,1.30
2022-09-03T19:10:34.583Z,1.23
2022-09-03T19:13:45.604Z,1.17
2022-09-03T19:16:38.565Z,1.00
2022-09-03T19:19:46.038Z,1.13
2022-09-03T19:22:54.377Z,1.20
2022-09-03T19:25:40.787Z,1.33
2022-09-03T19:31:50.701Z,1.20
2022-09-03T19:35:00.931Z,1.42
2022-09-03T19:37:59.999Z,1.30
2022-09-03T19:41:14.962Z,1.30
2022-09-03T19:44:15.493Z,1.27
2022-09-03T19:47:11.551Z,1.20
2022-09-03T19:50:33.619Z,1.27
2022-09-03T19:53:22.124Z,1.05
2022-09-03T19:56:12.884Z,1.15
2022-09-03T19:59:07.022Z,1.20
2022-09-03T20:01:54.505Z,1.27
2022-09-03T20:04:50.841Z,1.00
2022-09-03T20:07:37.177Z,1.00
2022-09-03T20:13:05.121Z,1.02
2022-09-03T20:15:46.963Z,1.20
2022-09-03T20:18:51.086Z,1.02
2022-09-03T20:21:25.814Z,1.00
2022-09-03T20:24:34.355Z,1.13
2022-09-03T20:27:03.437Z,1.30
2022-09-03T20:29:33.043Z,1.20
2022-09-03T20:32:05.697Z,1.10
2022-09-03T20:34:48.029Z,1.20
2022-09-03T20:37:36.095Z,1.13
2022-09-03T20:40:21.123Z,1.10
2022-09-03T20:43:13.994Z,1.10
2022-09-03T20:46:18.026Z,1.02
2022-09-03T20:49:08.755Z,1.30
2022-09-03T20:52:05.434Z,1.33
2022-09-03T20:54:48.007Z,1.20
2022-09-03T20:57:44.762Z,1.27
2022-09-03T21:00:18.433Z,1.17
2022-09-03T21:03:00.245Z,0.90
2022-09-03T21:05:38.043Z,1.38
2022-09-03T21:08:34.331Z,1.30
2022-09-03T21:11:29.125Z,1.15
2022-09-03T21:14:14.610Z,1.38
2022-09-03T21:16:53.093Z,1.10
2022-09-03T21:19:37.910Z,1.40
2022-09-03T21:22:29.034Z,1.10
2022-09-03T21:25:03.550Z,1.20
2022-09-03T21:27:38.344Z,1.20
2022-09-03T21:30:08.508Z,1.10
2022-09-03T21:32:56.596Z,1.10
2022-09-03T21:36:18.937Z,1.25
2022-09-03T21:38:57.042Z,1.20
2022-09-03T21:41:32.198Z,1.17
2022-09-03T21:44:07.930Z,1.25
2022-09-03T21:46:54.097Z,1.30
2022-09-03T21:49:47.798Z,1.30
2022-09-03T21:52:24.432Z,0.93
2022-09-03T21:54:52.079Z,1.20
2022-09-03T21:57:52.421Z,1.30
2022-09-03T22:00:32.402Z,0.90
2022-09-03T22:03:00.359Z,1.30
2022-09-03T22:05:57.202Z,1.30
2022-09-03T22:11:12.952Z,1.33
2022-09-03T22:13:54.325Z,1.23
2022-09-03T22:16:23.989Z,1.17
2022-09-03T22:18:50.786Z,1.50
2022-09-03T22:21:17.211Z,1.50
2022-09-03T22:24:10.315Z,1.27
2022-09-03T22:26:49.162Z,1.73
2022-09-03T22:29:31.522Z,1.20
2022-09-03T22:32:10.388Z,1.33
2022-09-03T22:35:05.890Z,1.23
2022-09-03T22:37:47.754Z,1.17
2022-09-03T22:40:28.573Z,1.30
2022-09-03T22:43:01.928Z,1.15
2022-09-03T22:45:45.639Z,1.20
2022-09-03T22:48:33.646Z,1.30
2022-09-03T22:51:02.689Z,1.30
2022-09-03T22:53:50.751Z,1.00
2022-09-03T22:56:22.103Z,0.88
2022-09-03T22:59:36.821Z,1.38
2022-09-03T23:02:14.224Z,1.38
2022-09-03T23:04:59.151Z,1.30
2022-09-03T23:07:35.001Z,1.13
2022-09-03T23:10:09.605Z,1.27
2022-09-03T23:13:16.583Z,0.98
2022-09-03T23:15:45.946Z,1.25
2022-09-03T23:18:20.960Z,1.45
2022-09-03T23:20:58.717Z,1.30
2022-09-03T23:23:34.341Z,1.13
2022-09-03T23:26:21.573Z,1.50
2022-09-03T23:28:54.432Z,1.25
2022-09-03T23:31:24.170Z,1.20
2022-09-03T23:33:53.752Z,1.30
2022-09-03T23:36:57.960Z,1.30
2022-09-03T23:39:28.636Z,1.30
2022-09-03T23:42:27.533Z,1.13
2022-09-03T23:45:25.095Z,1.20
2022-09-03T23:48:01.041Z,1.17
2022-09-03T23:53:17.685Z,1.30
2022-09-03T23:55:53.802Z,1.52
2022-09-03T23:58:55.937Z,1.20
